Pecos, TX (79772)

6:56 PM CDT on September 01, 2015 (GMT -0500)
Pecos Municipal | | Change Station
CLOSE
Current Station
Airport
Location: Pecos,
Elevation: 2612 ft
Nearby Weather Stations

Elev 2612 ft 31.38 °N, 103.51 °W | Updated 21 minutes ago

Clear
Clear
96 °F
Feels Like 96 °F
N
17
Wind Variable Wind from ESE
Gusts 24 mph

Today
High -- | Low -- °F
--% Chance of Precip.
Yesterday
High -- | Low -- °F
Precip. -- in
7:30 AM 8:18 PM
Waning Gibbous, 85% visible
Pressure 29.93 in
Visibility 10.0 miles
Clouds Clear
Dew Point 49 °F
Humidity 20%
Rainfall 0.00 in
Snow Depth Not available.
UV 2 out of 12
Pollen 9.80 out of 12
Air Quality Not available.
Flu Activity Not available.
METAR KPEQ 012335Z AUTO 11015G21KT 10SM CLR 35/09 A2993 RMK AO2 T03540092
Pressure 29.93 in
Visibility 10.0 miles
Clouds Clear
Dew Point 49 °F
Humidity 20%
Rainfall 0.00 in
Snow Depth Not available.
UV 2 out of 12
Pollen 9.80 out of 12
Air Quality Not available.
Flu Activity Not available.
METAR KPEQ 012335Z AUTO 11015G21KT 10SM CLR 35/09 A2993 RMK AO2 T03540092

10-Day Weather Forecast

×

Almanac

Astronomy

Sep. 01, 2015 Rise Set
Actual Time
Civil Twilight
Nautical Twilight
Astronomical Twilight
Moon
Length of Visible Light
Length of Day
Tomorrow will be .
, % of the Moon is Illuminated

Today's Extremes

State Highs State Lows

Community

WunderPhotos

Upload Photos

1,851,643 photos uploaded!

WunderBlogs® & News

Nearby

Air Quality

  Air Quality AQ Index Pollutant
Not available.

Snow Depth

Station Depth Elevation

Earthquake Activity

City Distance Mag. Time & Date
Minimum magnitude displayed is 2.5.

Coastal Water Temperatures

Place Temperature

Stations

Nearby Weather Stations

Station Location Temp. Windchill Dew Point Humidity Wind Precip. Elev Updated Type